Time;durP1;ratioP1;P1;durP2;ratioP2;P2;SDS_P1;SDS_P2;PMS_P1;PMS_P2;Temp;Humidity;BMP_temperature;BMP_pressure;BME280_temperature;BME280_humidity;BME280_pressure;Samples;Min_cycle;Max_cycle;Signal;HPM_P1;HPM_P2
2022/09/30 00:01:43;;;;;;;0.75;0.75;;;19.00;63.30;;;;;;5021474;28;44001;-61
2022/09/30 00:04:16;;;;;;;0.60;0.60;;;19.00;63.30;;;;;;5021244;28;43920;-60
2022/09/30 00:06:44;;;;;;;0.63;0.63;;;19.00;63.30;;;;;;5019336;28;43474;-60
2022/09/30 00:09:12;;;;;;;0.70;0.70;;;19.00;63.30;;;;;;5020616;28;43410;-61
2022/09/30 00:11:41;;;;;;;0.60;0.60;;;19.00;63.30;;;;;;5017129;28;44624;-60
2022/09/30 00:14:15;;;;;;;0.52;0.52;;;19.00;63.30;;;;;;5021795;28;43523;-60
2022/09/30 00:16:42;;;;;;;0.60;0.60;;;19.00;63.30;;;;;;5020895;28;43585;-60
2022/09/30 00:19:10;;;;;;;0.70;0.70;;;19.00;63.30;;;;;;5020291;28;43604;-61
2022/09/30 00:21:38;;;;;;;0.70;0.70;;;19.00;63.40;;;;;;5021271;28;43985;-60
2022/09/30 00:24:06;;;;;;;1.30;0.70;;;19.00;63.30;;;;;;5021323;28;43546;-60
2022/09/30 00:26:34;;;;;;;0.68;0.68;;;18.90;63.40;;;;;;5020877;28;43538;-60
2022/09/30 00:29:02;;;;;;;0.85;0.85;;;19.00;63.50;;;;;;5021927;28;44084;-60
2022/09/30 00:31:32;;;;;;;0.60;0.60;;;19.00;63.30;;;;;;5020843;28;45164;-61
2022/09/30 00:34:10;;;;;;;0.75;0.70;;;18.90;63.40;;;;;;5021319;28;43926;-61
2022/09/30 00:36:42;;;;;;;1.10;0.70;;;19.00;63.30;;;;;;5020982;28;43380;-61
2022/09/30 00:39:13;;;;;;;0.70;0.70;;;18.90;63.30;;;;;;5021876;28;43550;-60
2022/09/30 00:41:42;;;;;;;0.80;0.80;;;18.90;63.30;;;;;;5021125;28;45370;-61
2022/09/30 00:44:46;;;;;;;0.85;0.77;;;19.00;63.50;;;;;;5021263;28;44020;-61
2022/09/30 00:47:27;;;;;;;0.60;0.57;;;18.90;63.30;;;;;;5022004;28;43458;-61
2022/09/30 00:49:58;;;;;;;0.75;0.75;;;18.90;63.30;;;;;;5024934;28;43379;-61
2022/09/30 00:52:26;;;;;;;;;;;18.90;63.40;;;;;;5022798;28;44235;-61
2022/09/30 00:54:56;;;;;;;0.60;0.60;;;18.90;63.30;;;;;;5024144;28;43518;-61
2022/09/30 00:57:24;;;;;;;0.68;0.68;;;18.90;63.40;;;;;;5024252;28;43459;-61
2022/09/30 00:59:51;;;;;;;0.73;0.73;;;18.90;63.40;;;;;;5024076;28;43565;-61
2022/09/30 01:02:19;;;;;;;0.70;0.70;;;18.80;63.20;;;;;;5024122;28;44023;-61
2022/09/30 01:04:47;;;;;;;0.75;0.75;;;18.90;63.40;;;;;;5023364;28;43813;-61
2022/09/30 01:07:14;;;;;;;0.70;0.70;;;18.90;63.40;;;;;;5023005;28;43528;-61
2022/09/30 01:09:43;;;;;;;0.55;0.55;;;18.80;63.20;;;;;;5023830;28;43460;-61
2022/09/30 01:12:20;;;;;;;0.70;0.70;;;18.90;63.40;;;;;;5023917;28;44674;-61
2022/09/30 01:14:52;;;;;;;0.77;0.77;;;18.90;63.30;;;;;;5023645;28;43480;-61
2022/09/30 01:17:41;;;;;;;0.80;0.80;;;18.90;63.30;;;;;;5023859;28;43428;-61
2022/09/30 01:20:27;;;;;;;0.60;0.60;;;18.90;63.30;;;;;;5024065;28;43436;-61
2022/09/30 01:23:00;;;;;;;0.77;0.77;;;18.80;63.30;;;;;;5024129;28;43908;-61
2022/09/30 01:26:10;;;;;;;0.68;0.68;;;18.80;63.30;;;;;;5021223;28;43442;-61
2022/09/30 01:29:31;;;;;;;0.50;0.50;;;18.80;63.40;;;;;;5018795;28;43563;-61
2022/09/30 01:32:16;;;;;;;0.80;0.80;;;18.80;63.40;;;;;;5021774;28;43490;-61
2022/09/30 01:34:49;;;;;;;0.75;0.75;;;18.80;63.40;;;;;;5019706;28;43693;-61
2022/09/30 01:37:28;;;;;;;0.73;0.73;;;18.80;63.40;;;;;;5023081;28;44448;-61
2022/09/30 01:40:31;;;;;;;0.65;0.65;;;18.80;63.40;;;;;;5022019;28;43438;-61
2022/09/30 01:43:23;;;;;;;0.60;0.60;;;18.80;63.30;;;;;;5022897;28;43420;-61
2022/09/30 01:46:20;;;;;;;0.65;0.65;;;18.80;63.40;;;;;;5023490;28;43811;-61
2022/09/30 01:49:16;;;;;;;0.70;0.70;;;18.70;63.30;;;;;;5017116;28;43572;-61
2022/09/30 01:51:55;;;;;;;0.60;0.60;;;18.80;63.40;;;;;;5023839;28;43444;-61
2022/09/30 01:54:34;;;;;;;1.08;0.82;;;18.70;63.30;;;;;;5022973;28;43429;-61
2022/09/30 01:57:16;;;;;;;1.35;0.60;;;18.70;63.40;;;;;;5023497;28;43807;-61
2022/09/30 01:59:54;;;;;;;1.42;0.70;;;18.70;63.30;;;;;;5005342;28;43397;-61
2022/09/30 02:02:30;;;;;;;0.70;0.70;;;18.70;63.30;;;;;;5018645;28;43490;-61
2022/09/30 02:05:06;;;;;;;0.75;0.75;;;18.70;63.30;;;;;;5023205;28;43446;-61
2022/09/30 02:07:59;;;;;;;0.60;0.60;;;18.70;63.30;;;;;;5022674;28;44045;-61
2022/09/30 02:10:50;;;;;;;0.73;0.57;;;18.70;63.30;;;;;;5021450;28;44004;-61
2022/09/30 02:13:48;;;;;;;0.70;0.70;;;18.70;63.30;;;;;;5023233;28;43407;-60
2022/09/30 02:16:31;;;;;;;0.70;0.70;;;18.70;63.40;;;;;;5019523;28;43545;-60
2022/09/30 02:19:08;;;;;;;0.70;0.70;;;18.70;63.40;;;;;;5023204;28;44960;-61
2022/09/30 02:21:39;;;;;;;0.65;0.60;;;18.70;63.40;;;;;;5017954;28;43442;-61
2022/09/30 02:24:13;;;;;;;0.70;0.60;;;18.70;63.40;;;;;;5022729;28;43354;-61
2022/09/30 02:26:45;;;;;;;0.50;0.50;;;18.70;63.40;;;;;;5022652;28;43546;-61
2022/09/30 02:29:19;;;;;;;0.40;0.40;;;18.60;63.40;;;;;;5022703;28;43795;-61
2022/09/30 02:31:51;;;;;;;0.70;0.70;;;18.60;63.40;;;;;;5022919;28;43471;-61
2022/09/30 02:34:33;;;;;;;0.90;0.75;;;18.60;63.40;;;;;;5055376;28;43472;-61
2022/09/30 02:37:35;;;;;;;0.73;0.70;;;18.60;63.40;;;;;;5022422;28;43416;-61
2022/09/30 02:40:12;;;;;;;2.25;0.73;;;18.60;63.30;;;;;;4998714;28;43942;-61
2022/09/30 02:42:42;;;;;;;0.52;0.52;;;18.60;63.40;;;;;;5022416;28;43371;-61
2022/09/30 02:45:15;;;;;;;0.77;0.67;;;18.60;63.40;;;;;;5022847;28;43399;-61
2022/09/30 02:48:00;;;;;;;0.50;0.50;;;18.60;63.40;;;;;;5020342;28;43376;-61
2022/09/30 02:50:36;;;;;;;0.88;0.73;;;18.60;63.40;;;;;;5021895;28;44706;-61
2022/09/30 02:53:16;;;;;;;0.70;0.70;;;18.60;63.40;;;;;;5022848;28;43415;-61
2022/09/30 02:56:16;;;;;;;0.60;0.60;;;18.60;63.40;;;;;;5022148;28;43467;-61
2022/09/30 02:58:45;;;;;;;0.80;0.80;;;18.60;63.40;;;;;;5021883;28;43530;-61
2022/09/30 03:01:15;;;;;;;0.50;0.50;;;18.50;63.40;;;;;;5022689;28;44982;-61
2022/09/30 03:03:48;;;;;;;0.57;0.57;;;18.50;63.40;;;;;;5021985;28;43407;-61
2022/09/30 03:06:16;;;;;;;0.70;0.70;;;18.50;63.40;;;;;;5021406;28;43509;-61
2022/09/30 03:08:45;;;;;;;1.90;0.63;;;18.50;63.40;;;;;;5019055;28;43321;-61
2022/09/30 03:11:25;;;;;;;0.52;0.52;;;18.50;63.40;;;;;;5019030;28;43754;-61
2022/09/30 03:14:08;;;;;;;0.63;0.63;;;18.50;63.40;;;;;;5022428;28;43421;-61
2022/09/30 03:16:57;;;;;;;0.70;0.70;;;18.50;63.40;;;;;;5021831;28;43501;-61
2022/09/30 03:19:25;;;;;;;1.48;0.70;;;18.50;63.40;;;;;;5021278;28;43465;-61
2022/09/30 03:22:10;;;;;;;0.50;0.50;;;18.50;63.40;;;;;;5022659;28;43753;-61
2022/09/30 03:25:17;;;;;;;0.80;0.80;;;18.50;63.40;;;;;;5021864;28;43468;-61
2022/09/30 03:27:50;;;;;;;0.70;0.70;;;18.50;63.40;;;;;;5022260;28;43400;-61
2022/09/30 03:30:25;;;;;;;0.65;0.65;;;18.50;63.40;;;;;;5022266;28;43482;-61
2022/09/30 03:33:24;;;;;;;0.88;0.85;;;18.50;63.50;;;;;;5018769;28;43850;-61
2022/09/30 03:36:01;;;;;;;0.57;0.57;;;18.50;63.40;;;;;;5021963;28;43431;-61
2022/09/30 03:38:46;;;;;;;0.50;0.50;;;18.40;63.40;;;;;;5020566;28;43783;-61
2022/09/30 03:41:32;;;;;;;0.50;0.50;;;18.40;63.40;;;;;;5021785;28;43395;-61
2022/09/30 03:44:01;;;;;;;0.43;0.43;;;18.40;63.40;;;;;;5021114;28;43822;-60
2022/09/30 03:46:40;;;;;;;0.50;0.50;;;18.40;63.40;;;;;;5020726;28;43507;-61
2022/09/30 03:49:18;;;;;;;0.50;0.50;;;18.40;63.40;;;;;;5008175;28;44019;-61
2022/09/30 03:51:46;;;;;;;0.68;0.52;;;18.40;63.40;;;;;;5021004;28;43487;-61
2022/09/30 03:54:17;;;;;;;0.40;0.40;;;18.40;63.40;;;;;;5019986;28;44074;-61
2022/09/30 03:56:44;;;;;;;0.60;0.60;;;18.40;63.40;;;;;;5020585;28;43958;-61
2022/09/30 03:59:29;;;;;;;0.40;0.40;;;18.40;63.40;;;;;;5021961;28;43412;-60
2022/09/30 04:01:56;;;;;;;0.55;0.55;;;18.40;63.30;;;;;;5019962;28;43367;-61
2022/09/30 04:04:24;;;;;;;0.70;0.70;;;18.40;63.40;;;;;;5021101;28;44148;-61
2022/09/30 04:06:52;;;;;;;0.43;0.43;;;18.40;63.40;;;;;;5020531;28;43701;-61
2022/09/30 04:09:19;;;;;;;0.70;0.60;;;18.40;63.40;;;;;;5021240;28;43413;-60
2022/09/30 04:11:47;;;;;;;0.60;0.60;;;18.40;63.40;;;;;;5020626;28;43632;-61
2022/09/30 04:14:14;;;;;;;0.70;0.70;;;18.40;63.40;;;;;;5021752;28;45279;-61
2022/09/30 04:16:42;;;;;;;0.47;0.47;;;18.40;63.40;;;;;;5018588;28;43778;-61
2022/09/30 04:19:09;;;;;;;0.45;0.45;;;18.30;63.30;;;;;;5021808;28;43395;-61
2022/09/30 04:21:37;;;;;;;0.50;0.50;;;18.30;63.30;;;;;;5021987;28;43505;-61
2022/09/30 04:24:04;;;;;;;0.55;0.55;;;18.30;63.30;;;;;;5025031;28;43780;-61
2022/09/30 04:26:32;;;;;;;0.40;0.40;;;18.30;63.30;;;;;;5022371;28;43478;-61
2022/09/30 04:28:59;;;;;;;0.50;0.50;;;18.30;63.30;;;;;;5024757;28;43353;-61
2022/09/30 04:31:27;;;;;;;0.50;0.50;;;18.30;63.30;;;;;;5024608;28;43417;-61
2022/09/30 04:33:55;;;;;;;0.50;0.47;;;18.30;63.30;;;;;;5024975;28;44253;-61
2022/09/30 04:36:23;;;;;;;0.93;0.85;;;18.30;63.30;;;;;;5023697;28;43423;-61
2022/09/30 04:38:52;;;;;;;0.63;0.63;;;18.30;63.30;;;;;;5023100;28;43451;-61
2022/09/30 04:41:19;;;;;;;0.50;0.50;;;18.30;63.30;;;;;;5023462;28;43518;-61
2022/09/30 04:43:47;;;;;;;0.55;0.55;;;18.30;63.30;;;;;;5056489;28;44034;-61
2022/09/30 04:46:17;;;;;;;0.40;0.40;;;18.30;63.30;;;;;;5024582;28;43470;-61
2022/09/30 04:48:45;;;;;;;0.30;0.30;;;18.20;63.30;;;;;;5024894;28;43548;-61
2022/09/30 04:51:18;;;;;;;0.50;0.50;;;18.20;63.30;;;;;;5022080;28;43490;-61
2022/09/30 04:53:47;;;;;;;0.85;0.60;;;18.30;63.30;;;;;;5056778;28;45954;-61
2022/09/30 04:56:18;;;;;;;0.50;0.50;;;18.30;63.30;;;;;;5024379;28;43513;-61
2022/09/30 04:58:46;;;;;;;;;;;18.30;63.30;;;;;;5022920;28;43410;-61
2022/09/30 05:01:15;;;;;;;0.45;0.45;;;18.20;63.30;;;;;;5024996;28;43393;-61
2022/09/30 05:03:43;;;;;;;0.50;0.50;;;18.20;63.40;;;;;;5020645;28;43889;-61
2022/09/30 05:06:13;;;;;;;0.45;0.45;;;18.20;63.30;;;;;;5023901;28;43395;-61
2022/09/30 05:08:42;;;;;;;1.48;0.52;;;18.30;63.30;;;;;;5021464;28;43373;-61
2022/09/30 05:11:18;;;;;;;0.50;0.50;;;18.30;63.20;;;;;;5020139;28;43441;-61
2022/09/30 05:13:46;;;;;;;0.50;0.40;;;18.30;63.20;;;;;;5022432;28;45451;-61
2022/09/30 05:16:15;;;;;;;0.50;0.50;;;18.20;63.10;;;;;;5024162;28;43663;-61
2022/09/30 05:18:44;;;;;;;0.50;0.50;;;18.30;63.80;;;;;;5023188;28;43577;-61
2022/09/30 05:21:19;;;;;;;0.40;0.40;;;18.20;63.10;;;;;;5022944;28;43515;-60
2022/09/30 05:23:47;;;;;;;0.40;0.40;;;18.20;63.00;;;;;;5023769;28;44062;-61
2022/09/30 05:26:14;;;;;;;0.50;0.50;;;18.20;63.00;;;;;;5022487;28;43419;-61
2022/09/30 05:28:42;;;;;;;0.50;0.50;;;18.20;63.10;;;;;;5021083;28;43432;-61
2022/09/30 05:31:12;;;;;;;0.43;0.43;;;18.30;63.10;;;;;;5023935;28;43454;-61
2022/09/30 05:33:40;;;;;;;0.57;0.57;;;18.30;63.00;;;;;;5022630;28;43885;-61
2022/09/30 05:36:12;;;;;;;0.50;0.50;;;18.30;63.10;;;;;;5023691;28;43452;-61
2022/09/30 05:38:40;;;;;;;0.50;0.50;;;18.20;63.00;;;;;;5023459;28;43519;-61
2022/09/30 05:41:10;;;;;;;0.47;0.47;;;18.30;63.00;;;;;;5017561;28;43650;-61
2022/09/30 05:43:46;;;;;;;0.45;0.45;;;18.20;63.00;;;;;;5021668;28;43928;-61
2022/09/30 05:46:16;;;;;;;0.40;0.40;;;18.20;63.00;;;;;;5021245;28;43428;-61
2022/09/30 05:48:44;;;;;;;0.40;0.40;;;18.20;63.10;;;;;;5023467;28;43429;-61
2022/09/30 05:51:12;;;;;;;0.40;0.40;;;18.20;63.00;;;;;;5023897;28;43423;-61
2022/09/30 05:53:41;;;;;;;0.38;0.38;;;18.20;63.00;;;;;;5022701;28;44075;-61
2022/09/30 05:56:11;;;;;;;0.50;0.50;;;18.20;63.00;;;;;;5023190;28;43477;-61
2022/09/30 05:58:40;;;;;;;0.40;0.40;;;18.20;63.00;;;;;;5022559;28;43455;-61
2022/09/30 06:01:13;;;;;;;0.40;0.40;;;18.20;63.00;;;;;;5023259;28;43634;-61
2022/09/30 06:03:43;;;;;;;0.50;0.50;;;18.20;63.00;;;;;;5022800;28;45133;-60
2022/09/30 06:06:11;;;;;;;0.40;0.40;;;18.20;63.00;;;;;;5022229;28;43956;-61
2022/09/30 06:08:39;;;;;;;0.45;0.45;;;18.20;63.00;;;;;;5022505;28;43492;-61
2022/09/30 06:11:13;;;;;;;0.65;0.60;;;18.20;62.90;;;;;;5015789;28;43538;-61
2022/09/30 06:13:42;;;;;;;0.52;0.52;;;18.10;62.90;;;;;;5022977;28;44765;-61
2022/09/30 06:16:11;;;;;;;0.40;0.40;;;18.20;63.00;;;;;;5005374;28;43509;-60
2022/09/30 06:18:42;;;;;;;1.00;0.40;;;18.10;63.00;;;;;;5020169;28;43461;-61
2022/09/30 06:21:11;;;;;;;;;;;18.10;63.00;;;;;;5023247;28;43353;-60
2022/09/30 06:23:39;;;;;;;0.98;0.38;;;18.10;63.00;;;;;;5021507;28;44001;-61
2022/09/30 06:26:08;;;;;;;0.50;0.50;;;18.10;63.00;;;;;;5011963;28;43433;-60
2022/09/30 06:28:36;;;;;;;0.50;0.50;;;18.10;63.10;;;;;;5022395;28;43326;-60
2022/09/30 06:31:04;;;;;;;0.68;0.60;;;18.10;63.10;;;;;;5023073;28;43890;-61
2022/09/30 06:33:32;;;;;;;1.20;0.50;;;18.10;63.10;;;;;;5021372;28;44029;-61
2022/09/30 06:36:03;;;;;;;0.47;0.47;;;18.10;63.10;;;;;;5021977;28;43464;-61
2022/09/30 06:38:31;;;;;;;;;;;18.10;63.20;;;;;;5022491;28;43464;-60
2022/09/30 06:40:59;;;;;;;0.52;0.52;;;18.10;63.10;;;;;;5023011;28;43439;-61
2022/09/30 06:43:27;;;;;;;0.98;0.40;;;18.10;63.20;;;;;;5021145;28;44721;-61
2022/09/30 06:45:55;;;;;;;0.50;0.50;;;18.00;63.10;;;;;;5022308;28;43512;-60
2022/09/30 06:48:39;;;;;;;0.63;0.60;;;18.10;63.20;;;;;;5022562;28;43412;-60
2022/09/30 06:51:10;;;;;;;0.40;0.40;;;18.10;63.20;;;;;;5022252;28;43616;-61
2022/09/30 06:53:38;;;;;;;0.50;0.50;;;18.10;63.20;;;;;;5022282;28;43827;-60
2022/09/30 06:56:07;;;;;;;0.50;0.50;;;18.10;63.20;;;;;;5022615;28;43538;-61
2022/09/30 06:58:34;;;;;;;1.95;0.70;;;18.10;63.20;;;;;;5021437;28;43617;-61
2022/09/30 07:01:05;;;;;;;1.55;0.80;;;18.00;63.20;;;;;;5021606;28;43463;-61
2022/09/30 07:03:34;;;;;;;1.40;1.30;;;18.00;63.30;;;;;;5052994;28;44193;-61
2022/09/30 07:06:04;;;;;;;2.90;1.30;;;18.10;63.30;;;;;;5022336;28;44318;-61
2022/09/30 07:08:34;;;;;;;1.30;1.30;;;18.00;63.30;;;;;;5020118;28;43449;-62
2022/09/30 07:11:06;;;;;;;2.13;1.23;;;18.10;63.30;;;;;;5028951;28;43517;-61
2022/09/30 07:13:34;;;;;;;1.30;1.30;;;18.10;63.40;;;;;;5020202;28;44685;-61
2022/09/30 07:16:01;;;;;;;1.67;1.40;;;18.20;63.20;;;;;;5022420;28;43431;-61
2022/09/30 07:18:29;;;;;;;1.30;1.30;;;18.20;63.10;;;;;;5021267;28;43387;-61
2022/09/30 07:20:56;;;;;;;1.50;1.40;;;18.30;63.00;;;;;;5022620;28;43754;-61
2022/09/30 07:23:27;;;;;;;1.45;1.35;;;18.30;63.00;;;;;;5054657;28;44288;-61
2022/09/30 07:26:02;;;;;;;1.17;1.17;;;18.40;62.90;;;;;;5020457;28;43372;-61
2022/09/30 07:28:32;;;;;;;1.40;1.30;;;18.50;62.80;;;;;;5015505;28;43487;-61
2022/09/30 07:31:05;;;;;;;1.40;1.40;;;18.50;62.80;;;;;;5021895;28;43419;-61
2022/09/30 07:33:55;;;;;;;1.40;1.30;;;18.50;62.70;;;;;;5020837;28;44199;-60
2022/09/30 07:36:28;;;;;;;1.20;1.15;;;18.60;62.70;;;;;;5021754;28;43399;-61
2022/09/30 07:39:04;;;;;;;1.40;1.30;;;18.60;62.60;;;;;;5021878;28;43466;-61
2022/09/30 07:41:34;;;;;;;1.48;1.30;;;18.60;62.60;;;;;;5021442;28;44102;-60
2022/09/30 07:44:05;;;;;;;1.63;1.53;;;18.60;62.40;;;;;;5022239;28;44080;-60
2022/09/30 07:46:35;;;;;;;1.92;1.80;;;18.60;62.60;;;;;;5017840;28;43937;-61
2022/09/30 07:49:07;;;;;;;2.35;2.08;;;18.70;62.60;;;;;;5022229;28;43437;-61
2022/09/30 07:51:37;;;;;;;1.92;1.83;;;18.70;62.60;;;;;;5020769;28;43432;-61
2022/09/30 07:54:13;;;;;;;2.40;2.20;;;18.70;62.40;;;;;;5020830;28;44977;-60
2022/09/30 07:56:42;;;;;;;2.60;2.40;;;18.70;62.40;;;;;;5022876;28;43476;-60
2022/09/30 07:59:33;;;;;;;2.83;2.55;;;18.80;62.60;;;;;;5018428;28;43596;-61
2022/09/30 08:02:01;;;;;;;2.58;2.45;;;18.80;62.50;;;;;;5025717;28;43375;-60
2022/09/30 08:04:29;;;;;;;2.60;2.40;;;18.90;62.50;;;;;;5022180;28;44975;-61
2022/09/30 08:06:59;;;;;;;2.30;2.20;;;18.90;62.40;;;;;;5023932;28;43374;-60
2022/09/30 08:09:28;;;;;;;2.15;2.05;;;19.00;62.30;;;;;;5024322;28;43423;-60
2022/09/30 08:11:57;;;;;;;2.67;2.00;;;19.10;62.30;;;;;;5027385;28;43498;-61
2022/09/30 08:14:26;;;;;;;2.25;2.15;;;19.10;62.20;;;;;;5024421;28;44661;-60
2022/09/30 08:16:55;;;;;;;2.47;1.90;;;19.20;62.20;;;;;;5024926;28;43674;-61
2022/09/30 08:19:24;;;;;;;2.00;1.90;;;19.20;62.10;;;;;;5023723;28;43478;-60
2022/09/30 08:21:52;;;;;;;2.03;1.90;;;19.30;62.00;;;;;;5025028;28;43452;-60
2022/09/30 08:24:21;;;;;;;1.88;1.70;;;19.30;62.00;;;;;;5025226;28;43669;-60
2022/09/30 08:26:48;;;;;;;2.10;1.90;;;19.40;61.90;;;;;;5024879;28;43459;-60
2022/09/30 08:29:16;;;;;;;1.77;1.67;;;19.50;61.90;;;;;;5023225;28;43427;-60
2022/09/30 08:31:51;;;;;;;1.90;1.80;;;19.60;61.80;;;;;;5020780;28;43407;-60
2022/09/30 08:34:20;;;;;;;1.80;1.70;;;19.60;61.60;;;;;;5024924;28;43805;-60
2022/09/30 08:36:47;;;;;;;1.55;1.50;;;19.70;61.60;;;;;;5023801;28;43977;-60
2022/09/30 08:39:15;;;;;;;1.70;1.60;;;19.70;61.50;;;;;;5024822;28;43439;-60
2022/09/30 08:42:08;;;;;;;1.70;1.60;;;19.70;61.40;;;;;;5023165;28;43977;-60
2022/09/30 08:45:11;;;;;;;2.13;1.50;;;19.70;61.40;;;;;;5015075;28;44081;-60
2022/09/30 08:48:06;;;;;;;1.70;1.60;;;19.80;61.60;;;;;;5005753;28;43536;-60
2022/09/30 08:50:45;;;;;;;1.63;1.52;;;19.80;61.50;;;;;;5022791;28;43483;-60
2022/09/30 08:53:23;;;;;;;2.65;1.52;;;19.90;61.60;;;;;;5021879;28;43423;-60
2022/09/30 08:55:53;;;;;;;1.63;1.52;;;20.00;61.60;;;;;;5020731;28;43571;-60
2022/09/30 08:58:28;;;;;;;1.58;1.27;;;20.00;61.60;;;;;;5019578;28;43734;-60
2022/09/30 09:01:25;;;;;;;1.75;1.40;;;20.10;61.50;;;;;;5022099;28;43520;-60
2022/09/30 09:03:53;;;;;;;1.40;1.30;;;20.20;61.30;;;;;;5015006;28;43522;-60
2022/09/30 09:06:38;;;;;;;1.55;1.23;;;20.30;61.20;;;;;;5022016;28;43745;-60
2022/09/30 09:09:31;;;;;;;1.20;1.20;;;20.30;61.10;;;;;;5023433;28;43530;-60
2022/09/30 09:12:14;;;;;;;1.75;1.23;;;20.40;61.00;;;;;;5024311;28;43391;-60
2022/09/30 09:14:55;;;;;;;1.52;1.40;;;20.50;61.00;;;;;;5022725;28;43420;-60
2022/09/30 09:17:28;;;;;;;1.05;1.05;;;20.50;60.90;;;;;;5022435;28;43815;-60
2022/09/30 09:20:10;;;;;;;1.40;1.30;;;20.50;60.80;;;;;;5050599;28;43449;-60
2022/09/30 09:22:38;;;;;;;1.10;1.10;;;20.60;60.80;;;;;;5021277;28;43396;-60
2022/09/30 09:25:09;;;;;;;1.52;1.13;;;20.60;60.80;;;;;;5022216;28;43532;-60
2022/09/30 09:27:44;;;;;;;1.10;1.00;;;20.60;60.80;;;;;;5022886;28;44080;-60
2022/09/30 09:30:18;;;;;;;1.00;0.98;;;20.60;60.80;;;;;;5023333;28;43522;-60
2022/09/30 09:32:57;;;;;;;1.27;1.00;;;20.70;60.80;;;;;;5022158;28;43454;-60
2022/09/30 09:35:52;;;;;;;1.00;0.98;;;20.60;60.70;;;;;;5021996;28;43459;-60
2022/09/30 09:38:34;;;;;;;0.82;0.80;;;20.70;60.80;;;;;;5020863;28;43814;-60
2022/09/30 09:41:02;;;;;;;1.48;1.00;;;20.60;60.80;;;;;;5023061;28;43465;-60
2022/09/30 09:43:57;;;;;;;1.92;1.13;;;20.60;60.90;;;;;;5023426;28;43391;-60
2022/09/30 09:46:39;;;;;;;1.27;1.20;;;20.60;61.00;;;;;;5022594;28;43471;-60
2022/09/30 09:49:24;;;;;;;1.30;1.30;;;20.60;61.00;;;;;;5023648;28;43815;-61
2022/09/30 09:52:11;;;;;;;1.95;1.10;;;20.60;61.10;;;;;;5023503;28;43459;-60
2022/09/30 09:54:41;;;;;;;1.00;1.00;;;20.60;61.10;;;;;;5022389;28;43405;-60
2022/09/30 09:57:17;;;;;;;1.42;1.10;;;20.60;61.30;;;;;;5023564;28;43419;-60
2022/09/30 10:03:27;;;;;;;2.30;1.02;;;20.60;61.30;;;;;;5034855;28;44041;-60
2022/09/30 10:06:00;;;;;;;0.93;0.93;;;20.60;61.60;;;;;;5040475;28;43435;-59
2022/09/30 10:08:30;;;;;;;1.98;1.20;;;20.50;61.50;;;;;;5029328;28;43452;-60
2022/09/30 10:11:04;;;;;;;3.00;1.58;;;20.60;61.60;;;;;;5015926;28;43905;-59
2022/09/30 10:13:37;;;;;;;1.35;1.10;;;20.50;61.60;;;;;;5020757;28;44406;-59
2022/09/30 10:16:05;;;;;;;1.10;1.00;;;20.60;61.90;;;;;;5020725;28;43432;-60
2022/09/30 10:18:37;;;;;;;1.45;1.17;;;20.60;61.90;;;;;;5020078;28;43411;-59
2022/09/30 10:21:20;;;;;;;0.98;0.77;;;20.50;61.90;;;;;;5021189;28;45336;-60
2022/09/30 10:23:48;;;;;;;2.60;1.00;;;20.50;61.90;;;;;;5022694;28;43395;-59
2022/09/30 10:26:18;;;;;;;3.63;1.08;;;20.50;62.00;;;;;;5022828;28;43428;-59
2022/09/30 10:28:58;;;;;;;1.20;1.10;;;20.50;62.10;;;;;;5014359;28;43483;-60
2022/09/30 10:31:27;;;;;;;1.00;1.00;;;20.50;62.10;;;;;;5021186;28;43926;-60
2022/09/30 10:34:09;;;;;;;1.65;0.98;;;20.50;62.20;;;;;;5052058;28;43399;-60
2022/09/30 10:36:40;;;;;;;1.10;1.00;;;20.50;62.10;;;;;;5020621;28;43383;-59
2022/09/30 10:39:19;;;;;;;0.80;0.80;;;20.50;62.10;;;;;;5023354;28;43403;-59
2022/09/30 10:41:47;;;;;;;1.73;1.02;;;20.50;62.10;;;;;;5020430;28;43960;-60
2022/09/30 10:44:23;;;;;;;1.02;1.00;;;20.50;62.30;;;;;;5021663;28;43433;-60
2022/09/30 10:46:57;;;;;;;2.45;1.05;;;20.50;62.30;;;;;;5021250;28;43941;-60
2022/09/30 10:49:33;;;;;;;1.67;1.08;;;20.50;62.20;;;;;;5017422;28;43437;-60
2022/09/30 10:52:01;;;;;;;1.90;0.98;;;20.50;62.10;;;;;;5029617;28;44069;-60
2022/09/30 10:54:34;;;;;;;2.17;0.98;;;20.50;62.20;;;;;;5021282;28;43403;-60
2022/09/30 10:57:03;;;;;;;2.75;1.13;;;20.50;62.20;;;;;;5021663;28;43430;-60
2022/09/30 10:59:35;;;;;;;2.40;1.35;;;20.50;62.20;;;;;;5021715;28;43661;-60
2022/09/30 11:02:19;;;;;;;3.65;1.10;;;20.60;62.20;;;;;;5021974;28;44007;-60
2022/09/30 11:04:58;;;;;;;3.00;1.08;;;20.50;62.20;;;;;;5021286;28;44137;-60
2022/09/30 11:07:40;;;;;;;2.47;1.00;;;20.60;62.10;;;;;;5021920;28;43580;-59
2022/09/30 11:10:44;;;;;;;0.90;0.82;;;20.60;62.00;;;;;;5024125;28;43611;-59
2022/09/30 11:13:41;;;;;;;1.17;1.08;;;20.60;62.00;;;;;;5020367;28;43743;-58
2022/09/30 11:16:16;;;;;;;1.73;1.00;;;20.60;62.10;;;;;;5015565;28;43713;-58
2022/09/30 11:18:53;;;;;;;2.03;0.82;;;20.60;62.10;;;;;;5021444;28;43579;-58
2022/09/30 11:21:30;;;;;;;2.20;0.70;;;20.70;62.30;;;;;;5021862;28;43413;-57
2022/09/30 11:24:33;;;;;;;1.00;0.90;;;20.70;62.00;;;;;;5009781;28;44201;-57
2022/09/30 11:27:41;;;;;;;1.13;0.93;;;20.70;62.20;;;;;;5020865;28;43602;-58
2022/09/30 11:30:23;;;;;;;0.85;0.80;;;20.70;62.00;;;;;;5018715;28;43558;-58
2022/09/30 11:33:20;;;;;;;1.33;0.85;;;20.70;62.00;;;;;;5043210;28;43521;-57
2022/09/30 11:36:39;;;;;;;1.88;0.90;;;20.80;62.00;;;;;;5014904;28;43676;-58
2022/09/30 11:39:21;;;;;;;;;;;20.70;62.00;;;;;;5020929;28;43427;-57
2022/09/30 11:42:21;;;;;;;1.40;1.00;;;20.70;62.00;;;;;;5019149;28;43479;-57
2022/09/30 11:44:58;;;;;;;1.00;0.98;;;20.80;62.00;;;;;;5003982;28;43520;-58
2022/09/30 11:47:36;;;;;;;1.40;1.00;;;20.80;62.10;;;;;;5018776;28;43991;-57
2022/09/30 11:50:19;;;;;;;0.88;0.82;;;20.80;62.10;;;;;;5015237;28;43435;-57
2022/09/30 11:53:18;;;;;;;2.58;0.93;;;20.80;61.90;;;;;;5020060;28;43468;-58
2022/09/30 11:56:11;;;;;;;1.05;0.70;;;20.80;61.80;;;;;;5019232;28;43470;-58
2022/09/30 11:58:50;;;;;;;1.63;0.68;;;20.80;61.90;;;;;;5020800;28;45764;-57
2022/09/30 12:01:29;;;;;;;1.45;0.80;;;20.80;62.00;;;;;;5019782;28;44058;-58
2022/09/30 12:04:12;;;;;;;1.10;0.93;;;20.70;62.00;;;;;;5019271;28;43476;-57
2022/09/30 12:06:48;;;;;;;0.70;0.70;;;20.80;62.00;;;;;;5011249;28;43500;-57
2022/09/30 12:09:27;;;;;;;1.65;0.98;;;20.80;62.00;;;;;;5020886;28;43797;-58
2022/09/30 12:12:11;;;;;;;1.63;0.85;;;20.80;62.00;;;;;;5022006;28;43511;-58
2022/09/30 12:15:04;;;;;;;0.75;0.70;;;20.80;61.90;;;;;;5020731;28;43486;-58
2022/09/30 12:17:54;;;;;;;1.30;0.80;;;20.80;61.90;;;;;;5015066;28;43329;-58
2022/09/30 12:20:35;;;;;;;0.85;0.63;;;20.80;61.80;;;;;;5020149;28;44959;-58
2022/09/30 12:23:29;;;;;;;2.33;0.90;;;20.80;61.90;;;;;;5021533;28;43515;-58
2022/09/30 12:26:02;;;;;;;0.80;0.80;;;20.80;61.90;;;;;;5019171;28;43402;-58
2022/09/30 12:31:49;;;;;;;;;;;20.80;62.00;;;;;;5018394;28;44684;-58
2022/09/30 12:34:44;;;;;;;0.60;0.60;;;20.70;62.00;;;;;;5020796;28;43412;-58
2022/09/30 12:37:28;;;;;;;1.08;0.68;;;20.70;62.00;;;;;;5017655;28;43487;-58
2022/09/30 12:40:24;;;;;;;0.85;0.70;;;20.70;62.00;;;;;;5019765;28;43425;-58
2022/09/30 12:43:10;;;;;;;1.58;0.88;;;20.70;62.10;;;;;;5022222;28;43995;-58
2022/09/30 12:46:13;;;;;;;1.48;0.77;;;20.70;62.20;;;;;;5020619;28;43442;-58
2022/09/30 12:48:55;;;;;;;0.77;0.75;;;20.70;62.20;;;;;;5018250;28;43398;-58
2022/09/30 12:51:34;;;;;;;0.70;0.70;;;20.70;62.20;;;;;;5053105;28;43454;-58
2022/09/30 12:54:11;;;;;;;1.17;0.70;;;20.70;62.20;;;;;;5023491;28;44016;-58
2022/09/30 12:56:48;;;;;;;2.63;0.80;;;20.70;62.20;;;;;;5017321;28;43412;-58
2022/09/30 12:59:22;;;;;;;0.70;0.68;;;20.70;62.20;;;;;;5021300;28;43440;-58
2022/09/30 13:01:50;;;;;;;0.80;0.60;;;20.70;62.30;;;;;;5024490;28;43544;-58
2022/09/30 13:04:33;;;;;;;0.50;0.50;;;20.70;62.30;;;;;;5023095;28;44175;-58
2022/09/30 13:07:01;;;;;;;1.33;0.80;;;20.60;62.20;;;;;;5022922;28;43511;-58
2022/09/30 13:09:54;;;;;;;1.60;0.80;;;20.60;62.30;;;;;;5022922;28;43417;-58
2022/09/30 13:12:42;;;;;;;1.27;0.50;;;20.60;62.30;;;;;;5022566;28;43493;-58
2022/09/30 13:15:28;;;;;;;0.90;0.80;;;20.70;62.30;;;;;;5022789;28;43800;-58
2022/09/30 13:18:24;;;;;;;1.63;0.82;;;20.70;62.30;;;;;;5015503;28;44260;-58
2022/09/30 13:21:07;;;;;;;1.17;0.80;;;20.60;62.30;;;;;;5021826;28;43484;-58
2022/09/30 13:23:46;;;;;;;2.38;1.20;;;20.70;62.30;;;;;;5055277;28;43479;-58
2022/09/30 13:26:22;;;;;;;3.78;1.23;;;20.60;62.30;;;;;;5024138;28;43797;-58
2022/09/30 13:28:52;;;;;;;4.85;1.88;;;20.60;62.30;;;;;;5021702;28;43470;-58
2022/09/30 13:31:20;;;;;;;3.80;2.05;;;20.60;62.40;;;;;;5021991;28;43582;-58
2022/09/30 13:34:03;;;;;;;5.32;2.13;;;20.60;62.50;;;;;;5023907;28;43627;-58
2022/09/30 13:36:50;;;;;;;5.55;2.50;;;20.60;62.50;;;;;;5023059;28;43816;-57
2022/09/30 13:39:24;;;;;;;6.00;2.45;;;20.50;62.60;;;;;;5013910;28;43873;-58
2022/09/30 13:42:05;;;;;;;7.22;2.65;;;20.50;62.60;;;;;;5023402;28;43523;-58